Accueil
METAR-TAF:

METAR-TAF

Aéroports :

Aéroport Agen-La Garenne

Agen, France

latitude: 44-11N, longitude: 000-36E, altitude: 61 m

Observation

Le bulletin a été fait il y a 29 minutes, à 07:00 UTC
Vent calme
Température 6°C
Humidité 100%
Pression 1021 hPa
Visibilité: 0500 m
brouillard

METAR: LFBA 240700Z AUTO 00000KT 0600 0500 R29/0600N FG VV/// 06/06 Q1021 BECMG 0300 FG

Heure: 08:29 (07:29 UTC)

Prévision

Le bulletin a été fait il y a 2 heures et 29 minutes, à 05:00 UTC
Prévision valable du 24 à 06 UTC au 24 à 15 UTC
Vent 4 kt de est/sud-est
Visibilité: 0300 m
brouillard
Evoluant progressivement
du 24 à 11 UTC au 24 à 13 UTC
Visibilité: 3000 m
Nuages fragmentés à une hauteur de 200 ft
brume
Evoluant progressivement
du 24 à 13 UTC au 24 à 15 UTC
Visibilité 10 km ou plus
pas de nuages en-dessous de 1500 mètres et pas de cumulonimbus.

TAF: LFBA 240500Z 2406/2415 12004KT 0300 FG VV/// BECMG 2411/2413 3000 BR BKN002 BECMG 2413/2415 CAVOK

Observations et prévisions météorologiques de plus de 4000 aéroports (messages METAR et TAF).

Les stations disponibles sont représentées par des disques jaunes et rouges sur la carte.

Passer la souris dessus pour voir le nom de la station.

Cliquer dessus pour voir les observations et prévisions météorologiques.

Pour changer de carte: cliquez sur les boutons verts avec une croix noire pour zoomer, sur le bouton vert avec un tiret pour effectuer un zoom arrière, ou sur les flèches vertes pour les cartes adjacentes.


METAR-TAF: